Time;durP1;ratioP1;P1;durP2;ratioP2;P2;SDS_P1;SDS_P2;PMS_P1;PMS_P2;Temp;Humidity;BMP_temperature;BMP_pressure;BME280_temperature;BME280_humidity;BME280_pressure;Samples;Min_cycle;Max_cycle;Signal;HPM_P1;HPM_P2
2022/11/16 00:00:33;;;;;;;3.22;2.88;;;14.50;99.90;;;;;;2069125;28;20032;-70
2022/11/16 00:01:34;;;;;;;3.15;2.40;;;14.50;99.90;;;;;;2069181;28;20108;-70
2022/11/16 00:02:34;;;;;;;4.72;2.65;;;14.50;99.90;;;;;;2070161;28;20022;-70
2022/11/16 00:03:35;;;;;;;2.70;2.50;;;14.50;99.90;;;;;;2070969;28;20080;-70
2022/11/16 00:04:35;;;;;;;2.92;2.50;;;14.50;99.90;;;;;;2071329;28;20113;-70
2022/11/16 00:05:36;;;;;;;2.90;2.65;;;14.50;99.90;;;;;;2071411;28;20444;-70
2022/11/16 00:06:36;;;;;;;2.75;2.55;;;14.60;99.90;;;;;;2070668;28;20053;-70
2022/11/16 00:07:37;;;;;;;3.55;2.53;;;14.50;99.90;;;;;;2071310;28;20083;-70
2022/11/16 00:09:21;;;;;;;2.70;2.50;;;14.50;99.90;;;;;;2077761;28;20600;-70
2022/11/16 00:10:10;;;;;;;2.70;2.50;;;14.50;99.90;;;;;;2071835;28;20029;-70
2022/11/16 00:11:14;;;;;;;3.00;2.70;;;14.40;99.90;;;;;;2069456;28;20022;-70
2022/11/16 00:12:14;;;;;;;3.10;2.85;;;14.40;99.90;;;;;;2069732;28;20491;-70
2022/11/16 00:13:15;;;;;;;3.25;2.40;;;14.40;99.90;;;;;;2069463;28;20018;-70
2022/11/16 00:14:16;;;;;;;4.32;2.92;;;14.40;99.90;;;;;;2069371;28;20089;-70
2022/11/16 00:15:17;;;;;;;3.00;2.70;;;14.40;99.90;;;;;;2070460;28;20065;-70
2022/11/16 00:16:18;;;;;;;3.10;2.80;;;14.40;99.90;;;;;;2070087;28;20528;-70
2022/11/16 00:17:18;;;;;;;4.90;2.72;;;14.40;99.90;;;;;;2070658;28;20533;-70
2022/11/16 00:18:18;;;;;;;3.38;2.72;;;14.40;99.90;;;;;;2068609;28;20101;-70
2022/11/16 00:19:19;;;;;;;3.03;2.72;;;14.40;99.90;;;;;;2068864;28;20038;-70
2022/11/16 00:20:20;;;;;;;3.80;2.53;;;14.30;99.90;;;;;;2071607;28;20022;-70
2022/11/16 00:21:20;;;;;;;3.65;3.03;;;14.40;99.90;;;;;;2071306;28;20038;-70
2022/11/16 00:22:21;;;;;;;2.60;2.40;;;14.30;99.90;;;;;;2071305;28;20492;-70
2022/11/16 00:23:22;;;;;;;3.20;3.00;;;14.30;99.90;;;;;;2071180;28;20755;-70
2022/11/16 00:24:23;;;;;;;3.28;2.70;;;14.30;99.90;;;;;;2070123;28;20032;-70
2022/11/16 00:25:23;;;;;;;3.55;2.95;;;14.30;99.90;;;;;;2069558;28;20896;-70
2022/11/16 00:26:24;;;;;;;4.38;3.28;;;14.30;99.90;;;;;;2067991;28;20096;-70
2022/11/16 00:27:24;;;;;;;2.92;2.60;;;14.30;99.90;;;;;;2070771;28;20049;-70
2022/11/16 00:28:25;;;;;;;3.47;3.17;;;14.30;99.90;;;;;;2071671;28;20065;-70
2022/11/16 00:29:26;;;;;;;4.28;2.88;;;14.30;99.90;;;;;;2068790;28;20030;-70
2022/11/16 00:30:26;;;;;;;4.13;3.03;;;14.30;99.90;;;;;;2070664;28;20022;-70
2022/11/16 00:31:27;;;;;;;3.60;3.30;;;14.30;99.90;;;;;;2070668;28;20561;-70
2022/11/16 00:32:27;;;;;;;3.22;2.92;;;14.20;99.90;;;;;;2070584;28;20473;-70
2022/11/16 00:33:28;;;;;;;3.30;3.00;;;14.20;99.90;;;;;;2069259;28;20025;-70
2022/11/16 00:34:29;;;;;;;3.85;3.17;;;14.20;99.90;;;;;;2068752;28;20061;-70
2022/11/16 00:35:29;;;;;;;3.38;3.05;;;14.20;99.90;;;;;;2068881;28;20026;-70
2022/11/16 00:36:30;;;;;;;3.10;2.90;;;14.20;99.90;;;;;;2069248;28;20716;-70
2022/11/16 00:37:30;;;;;;;3.85;3.42;;;14.20;99.90;;;;;;2068264;28;20025;-70
2022/11/16 00:38:31;;;;;;;3.58;3.10;;;14.20;99.90;;;;;;2070813;28;20033;-70
2022/11/16 00:39:33;;;;;;;4.68;3.38;;;14.20;99.90;;;;;;2069158;28;20036;-70
2022/11/16 00:40:33;;;;;;;4.32;3.50;;;14.20;99.90;;;;;;2069141;28;20072;-70
2022/11/16 00:41:34;;;;;;;3.92;3.38;;;14.20;99.90;;;;;;2069544;28;20030;-70
2022/11/16 00:42:34;;;;;;;3.25;2.92;;;14.20;99.90;;;;;;2069004;28;20030;-70
2022/11/16 00:43:35;;;;;;;3.90;3.28;;;14.20;99.90;;;;;;2069034;28;20141;-70
2022/11/16 00:44:36;;;;;;;3.90;3.05;;;14.20;99.90;;;;;;2071364;28;20061;-70
2022/11/16 00:45:38;;;;;;;4.55;3.33;;;14.20;99.90;;;;;;2068865;28;20024;-70
2022/11/16 00:46:39;;;;;;;5.15;3.10;;;14.20;99.90;;;;;;2070654;28;20386;-70
2022/11/16 00:47:40;;;;;;;3.78;2.95;;;14.20;99.90;;;;;;2070766;28;20076;-70
2022/11/16 00:48:40;;;;;;;3.83;3.40;;;14.30;99.90;;;;;;2070631;28;20100;-70
2022/11/16 00:49:41;;;;;;;4.43;3.00;;;14.20;99.90;;;;;;2071268;28;20132;-70
2022/11/16 00:50:43;;;;;;;4.03;3.58;;;14.20;99.90;;;;;;2069860;28;20026;-70
2022/11/16 00:51:44;;;;;;;4.50;3.08;;;14.20;99.90;;;;;;2070621;28;20029;-70
2022/11/16 00:52:45;;;;;;;4.28;3.72;;;14.20;99.90;;;;;;2071756;28;20038;-70
2022/11/16 00:53:45;;;;;;;5.95;3.47;;;14.20;99.90;;;;;;2069388;28;20067;-70
2022/11/16 00:54:46;;;;;;;3.88;3.47;;;14.20;99.90;;;;;;2070537;28;20104;-70
2022/11/16 00:55:47;;;;;;;4.20;3.72;;;14.20;99.90;;;;;;2069072;28;20061;-70
2022/11/16 00:56:47;;;;;;;4.03;3.53;;;14.20;99.90;;;;;;2069363;28;20409;-70
2022/11/16 00:57:48;;;;;;;4.03;3.67;;;14.20;99.90;;;;;;2069438;28;20140;-71
2022/11/16 00:58:49;;;;;;;4.10;3.40;;;14.20;99.90;;;;;;2070611;28;20466;-71
2022/11/16 00:59:49;;;;;;;3.47;3.17;;;14.20;99.90;;;;;;2070884;28;20372;-71
2022/11/16 01:00:50;;;;;;;5.00;3.60;;;14.20;99.90;;;;;;2069560;28;20798;-70
2022/11/16 01:01:50;;;;;;;4.03;3.60;;;14.20;99.90;;;;;;2070074;28;20083;-70
2022/11/16 01:02:53;;;;;;;4.25;3.80;;;14.20;99.90;;;;;;2069141;28;20033;-70
2022/11/16 01:03:53;;;;;;;3.15;2.80;;;14.20;99.90;;;;;;2068654;28;20018;-70
2022/11/16 01:04:54;;;;;;;3.55;3.25;;;14.20;99.90;;;;;;2068207;28;20036;-70
2022/11/16 01:06:03;;;;;;;4.18;3.70;;;14.20;99.90;;;;;;2070658;28;20389;-70
2022/11/16 01:07:03;;;;;;;4.35;3.63;;;14.20;99.90;;;;;;2069988;28;20032;-70
2022/11/16 01:08:05;;;;;;;5.38;3.72;;;14.20;99.90;;;;;;2070240;28;20045;-70
2022/11/16 01:09:05;;;;;;;4.35;3.83;;;14.10;99.90;;;;;;2071299;28;20072;-70
2022/11/16 01:10:10;;;;;;;4.80;4.00;;;14.20;99.90;;;;;;2070555;28;20508;-70
2022/11/16 01:12:32;;;;;;;6.95;3.97;;;14.20;99.90;;;;;;2070254;28;20026;-70
2022/11/16 01:13:33;;;;;;;4.40;3.90;;;14.10;99.90;;;;;;2068018;28;20061;-70
2022/11/16 01:14:35;;;;;;;4.32;3.83;;;14.10;99.90;;;;;;2068681;28;20034;-70
2022/11/16 01:15:35;;;;;;;4.82;4.28;;;14.10;99.90;;;;;;2071623;28;20156;-70
2022/11/16 01:16:36;;;;;;;4.65;3.72;;;14.10;99.90;;;;;;2069245;28;20041;-70
2022/11/16 01:17:38;;;;;;;4.15;3.70;;;14.20;99.90;;;;;;2069526;28;20058;-70
2022/11/16 01:18:39;;;;;;;4.65;3.85;;;14.10;99.90;;;;;;2069827;28;20413;-70
2022/11/16 01:19:39;;;;;;;5.40;3.85;;;14.10;99.90;;;;;;2069301;28;20033;-70
2022/11/16 01:20:40;;;;;;;4.95;4.30;;;14.10;99.90;;;;;;2068573;28;20037;-70
2022/11/16 01:21:40;;;;;;;5.93;4.10;;;14.10;99.90;;;;;;2069032;28;20515;-70
2022/11/16 01:22:42;;;;;;;4.18;3.75;;;14.10;99.90;;;;;;2069648;28;20093;-70
2022/11/16 01:23:42;;;;;;;4.82;4.28;;;14.10;99.90;;;;;;2069219;28;20021;-70
2022/11/16 01:24:45;;;;;;;4.47;4.07;;;14.10;99.90;;;;;;2068674;28;20025;-70
2022/11/16 01:25:54;;;;;;;5.07;4.57;;;14.10;99.90;;;;;;2070469;28;20032;-70
2022/11/16 01:26:57;;;;;;;4.72;3.90;;;14.10;99.90;;;;;;2070407;28;20018;-70
2022/11/16 01:27:58;;;;;;;4.60;4.15;;;14.10;99.90;;;;;;2069936;28;20022;-70
2022/11/16 01:28:58;;;;;;;4.65;4.00;;;14.10;99.90;;;;;;2070154;28;20030;-70
2022/11/16 01:29:59;;;;;;;6.18;4.53;;;14.00;99.90;;;;;;2070174;28;20024;-70
2022/11/16 01:30:59;;;;;;;6.43;4.50;;;14.00;99.90;;;;;;2068867;28;20386;-70
2022/11/16 01:32:00;;;;;;;4.07;3.75;;;14.10;99.90;;;;;;2070733;28;20049;-70
2022/11/16 01:33:00;;;;;;;4.18;3.78;;;14.00;99.90;;;;;;2068674;28;20037;-70
2022/11/16 01:34:01;;;;;;;5.07;4.57;;;14.00;99.90;;;;;;2070397;28;20075;-70
2022/11/16 01:35:02;;;;;;;5.45;4.22;;;14.00;99.90;;;;;;2069324;28;20030;-70
2022/11/16 01:36:13;;;;;;;4.88;4.25;;;14.00;99.90;;;;;;2068837;28;20026;-70
2022/11/16 01:37:14;;;;;;;5.13;4.63;;;14.00;99.90;;;;;;2069306;28;20021;-70
2022/11/16 01:38:15;;;;;;;5.28;4.32;;;14.00;99.90;;;;;;2070147;28;20084;-70
2022/11/16 01:39:16;;;;;;;4.90;4.25;;;14.00;99.90;;;;;;2069638;28;20075;-70
2022/11/16 01:40:16;;;;;;;5.75;4.55;;;14.00;99.90;;;;;;2069580;28;20030;-70
2022/11/16 01:41:23;;;;;;;5.40;4.53;;;14.00;99.90;;;;;;2067872;28;20026;-70
2022/11/16 01:42:26;;;;;;;4.93;4.35;;;14.00;99.90;;;;;;2070444;28;20034;-70
2022/11/16 01:43:27;;;;;;;4.63;4.22;;;14.00;99.90;;;;;;2069629;28;20014;-70
2022/11/16 01:44:30;;;;;;;5.05;4.15;;;14.00;99.90;;;;;;2068948;28;20018;-70
2022/11/16 01:45:42;;;;;;;5.20;3.95;;;14.00;99.90;;;;;;2069430;28;20037;-70
2022/11/16 01:46:43;;;;;;;5.43;4.05;;;14.00;99.90;;;;;;2070838;28;20054;-70
2022/11/16 01:47:44;;;;;;;4.15;3.83;;;14.00;99.90;;;;;;2068394;28;20038;-70
2022/11/16 01:48:46;;;;;;;4.70;4.30;;;14.00;99.90;;;;;;2068443;28;20030;-70
2022/11/16 01:49:53;;;;;;;5.03;4.13;;;13.90;99.90;;;;;;2076778;28;20508;-70
2022/11/16 01:50:56;;;;;;;4.63;4.15;;;13.90;99.90;;;;;;2076235;28;20021;-70
2022/11/16 01:52:19;;;;;;;4.60;4.20;;;14.00;99.90;;;;;;2070723;28;20029;-70
2022/11/16 01:53:19;;;;;;;5.70;3.95;;;13.90;99.90;;;;;;2071171;28;20029;-70
2022/11/16 01:54:20;;;;;;;4.22;3.83;;;13.90;99.90;;;;;;2071101;28;20030;-70
2022/11/16 01:55:22;;;;;;;4.65;4.15;;;13.90;99.90;;;;;;2071258;28;20500;-70
2022/11/16 01:56:24;;;;;;;5.05;4.20;;;13.90;99.90;;;;;;2071378;28;20026;-70
2022/11/16 01:57:42;;;;;;;4.95;4.45;;;13.90;99.90;;;;;;2071355;28;20030;-70
2022/11/16 01:58:44;;;;;;;5.15;4.15;;;13.90;99.90;;;;;;2071482;28;20014;-70
2022/11/16 01:59:48;;;;;;;6.38;4.70;;;13.90;99.90;;;;;;2071695;28;20513;-70
2022/11/16 02:00:49;;;;;;;5.32;4.13;;;13.90;99.90;;;;;;2071759;28;20033;-70
2022/11/16 02:01:49;;;;;;;4.65;4.25;;;13.90;99.90;;;;;;2072278;28;20473;-70
2022/11/16 02:02:50;;;;;;;4.35;4.00;;;13.90;99.90;;;;;;2072143;28;20079;-70
2022/11/16 02:03:50;;;;;;;4.57;4.20;;;13.90;99.90;;;;;;2071100;28;20485;-70
2022/11/16 02:04:52;;;;;;;5.38;4.13;;;13.90;99.90;;;;;;2068992;28;20035;-70
2022/11/16 02:06:21;;;;;;;4.85;4.45;;;13.90;99.90;;;;;;2072577;28;20025;-70
2022/11/16 02:07:29;;;;;;;4.80;4.40;;;13.90;99.90;;;;;;2071716;28;20026;-70
2022/11/16 02:10:12;;;;;;;4.70;4.30;;;13.90;99.90;;;;;;2069531;28;20038;-70
2022/11/16 02:11:21;;;;;;;5.32;4.28;;;13.90;99.90;;;;;;2070849;28;20068;-70
2022/11/16 02:12:33;;;;;;;5.80;4.30;;;13.90;99.90;;;;;;2072469;28;20018;-70
2022/11/16 02:14:08;;;;;;;4.80;4.30;;;13.90;99.90;;;;;;2070261;28;20187;-70
2022/11/16 02:15:30;;;;;;;4.47;4.07;;;13.90;99.90;;;;;;2063971;28;20045;-70
2022/11/16 02:16:57;;;;;;;4.50;4.00;;;13.90;99.90;;;;;;2070521;28;20026;-70
2022/11/16 02:18:10;;;;;;;4.65;4.25;;;13.90;99.90;;;;;;2071336;28;20072;-70
2022/11/16 02:19:38;;;;;;;4.65;4.30;;;13.90;99.90;;;;;;2070980;28;20018;-70
2022/11/16 02:20:59;;;;;;;4.57;3.83;;;13.80;99.90;;;;;;2070972;28;20069;-70
2022/11/16 02:22:41;;;;;;;4.63;3.72;;;13.90;99.90;;;;;;2071790;28;20502;-70
2022/11/16 02:24:00;;;;;;;5.15;4.28;;;13.80;99.90;;;;;;2069785;28;20080;-70
2022/11/16 02:25:28;;;;;;;5.03;3.95;;;13.80;99.90;;;;;;2071334;28;20860;-70
2022/11/16 02:26:47;;;;;;;4.72;4.10;;;13.80;99.90;;;;;;2071270;28;20037;-70
2022/11/16 02:28:32;;;;;;;6.38;4.38;;;13.80;99.90;;;;;;2070790;28;20026;-70
2022/11/16 02:29:38;;;;;;;5.72;4.35;;;13.80;99.90;;;;;;2060680;28;20038;-70
2022/11/16 02:30:45;;;;;;;6.10;4.55;;;13.80;99.90;;;;;;2063386;28;20498;-70
2022/11/16 02:31:59;;;;;;;5.03;4.55;;;13.80;99.90;;;;;;2065423;28;20045;-70
2022/11/16 02:33:08;;;;;;;5.10;4.55;;;13.80;99.90;;;;;;2070764;28;20030;-70
2022/11/16 02:34:11;;;;;;;6.70;4.80;;;13.80;99.90;;;;;;2071281;28;21427;-70
2022/11/16 02:35:27;;;;;;;6.45;4.75;;;13.90;99.90;;;;;;2070897;28;20053;-70
2022/11/16 02:36:28;;;;;;;5.85;4.78;;;13.90;99.90;;;;;;2069746;28;20425;-70
2022/11/16 02:37:33;;;;;;;7.55;5.10;;;13.90;99.90;;;;;;2068129;28;20053;-70
2022/11/16 02:38:40;;;;;;;7.03;5.05;;;13.90;99.90;;;;;;2071311;28;20485;-70
2022/11/16 02:39:45;;;;;;;5.85;4.45;;;13.90;99.90;;;;;;2072304;28;20468;-70
2022/11/16 02:40:49;;;;;;;7.55;4.50;;;13.90;99.90;;;;;;2070062;28;20053;-70
2022/11/16 02:41:51;;;;;;;4.78;4.32;;;13.90;99.90;;;;;;2069737;28;20036;-70
2022/11/16 02:42:58;;;;;;;6.25;5.22;;;13.90;99.90;;;;;;2071088;28;20096;-70
2022/11/16 02:44:16;;;;;;;5.82;4.78;;;13.90;99.90;;;;;;2069513;28;20034;-70
2022/11/16 02:45:23;;;;;;;6.32;4.95;;;14.00;99.90;;;;;;2071086;28;20077;-70
2022/11/16 02:46:30;;;;;;;6.53;4.65;;;13.90;99.90;;;;;;2071570;28;20058;-70
2022/11/16 02:47:33;;;;;;;5.10;4.40;;;13.90;99.90;;;;;;2071667;28;20034;-70
2022/11/16 02:48:43;;;;;;;4.78;4.30;;;13.90;99.90;;;;;;2070744;28;20474;-70
2022/11/16 02:49:51;;;;;;;4.68;4.28;;;13.90;99.90;;;;;;2068964;28;20083;-70
2022/11/16 02:50:52;;;;;;;5.57;4.45;;;13.90;99.90;;;;;;2070936;28;20180;-70
2022/11/16 02:51:54;;;;;;;4.60;4.18;;;13.90;99.90;;;;;;2071149;28;20026;-70
2022/11/16 02:52:55;;;;;;;5.40;4.32;;;13.90;99.90;;;;;;2070311;28;20026;-70
2022/11/16 02:54:11;;;;;;;4.63;3.70;;;13.90;99.90;;;;;;2070999;28;20145;-70
2022/11/16 02:55:12;;;;;;;4.22;3.83;;;13.90;99.90;;;;;;2069602;28;20049;-70
2022/11/16 02:56:13;;;;;;;3.97;3.63;;;13.90;99.90;;;;;;2069447;28;20122;-70
2022/11/16 02:57:40;;;;;;;4.28;3.92;;;13.90;99.90;;;;;;2071058;28;20030;-70
2022/11/16 02:58:41;;;;;;;4.65;4.25;;;13.90;99.90;;;;;;2071053;28;20418;-70
2022/11/16 02:59:45;;;;;;;4.63;3.65;;;13.80;99.90;;;;;;2072096;28;20080;-70
2022/11/16 03:00:50;;;;;;;4.70;4.20;;;13.80;99.90;;;;;;2072045;28;20038;-70
2022/11/16 03:02:03;;;;;;;4.65;3.72;;;13.90;99.90;;;;;;2070002;28;20030;-70
2022/11/16 03:03:19;;;;;;;4.38;3.97;;;13.90;99.90;;;;;;2069597;28;20022;-70
2022/11/16 03:04:36;;;;;;;4.38;3.70;;;13.80;99.90;;;;;;2069809;28;20029;-70
2022/11/16 03:05:46;;;;;;;4.22;3.90;;;13.80;99.90;;;;;;2070100;28;20077;-70
2022/11/16 03:06:48;;;;;;;4.65;4.00;;;13.80;99.90;;;;;;2068279;28;20026;-70
2022/11/16 03:07:59;;;;;;;5.13;3.85;;;13.80;99.90;;;;;;2070933;28;20117;-70
2022/11/16 03:09:07;;;;;;;3.67;3.38;;;13.90;99.90;;;;;;2069684;28;20034;-70
2022/11/16 03:10:08;;;;;;;5.75;3.83;;;13.80;99.90;;;;;;2069102;28;20030;-70
2022/11/16 03:12:34;;;;;;;3.70;2.80;;;13.80;99.90;;;;;;2070389;28;20034;-70
2022/11/16 03:13:36;;;;;;;4.03;3.50;;;13.80;99.90;;;;;;2070859;28;20019;-70
2022/11/16 03:14:50;;;;;;;3.83;3.53;;;13.80;99.90;;;;;;2070136;28;20025;-70
2022/11/16 03:15:53;;;;;;;3.50;3.28;;;13.80;99.90;;;;;;2070089;28;20107;-70
2022/11/16 03:16:59;;;;;;;3.50;3.20;;;13.80;99.90;;;;;;2068853;28;20048;-70
2022/11/16 03:17:59;;;;;;;3.78;3.33;;;13.90;99.90;;;;;;2070942;28;20036;-70
2022/11/16 03:19:06;;;;;;;3.65;3.20;;;13.80;99.90;;;;;;2070782;28;20030;-70
2022/11/16 03:20:21;;;;;;;3.80;2.83;;;13.90;99.90;;;;;;2071137;28;20041;-70
2022/11/16 03:21:43;;;;;;;3.33;2.92;;;13.80;99.90;;;;;;2068755;28;20037;-70
2022/11/16 03:22:48;;;;;;;3.15;2.88;;;13.80;99.90;;;;;;2068360;28;20482;-70
2022/11/16 03:23:49;;;;;;;3.20;2.90;;;13.80;99.90;;;;;;2069325;28;20057;-70
2022/11/16 03:24:50;;;;;;;4.82;2.88;;;13.80;99.90;;;;;;2070197;28;20482;-70
2022/11/16 03:25:54;;;;;;;3.20;2.90;;;13.70;99.90;;;;;;2069212;28;20025;-70
2022/11/16 03:27:07;;;;;;;3.28;2.90;;;13.80;99.90;;;;;;2072011;28;20030;-70
2022/11/16 03:28:14;;;;;;;3.17;2.90;;;13.80;99.90;;;;;;2069878;28;20478;-70
2022/11/16 03:29:32;;;;;;;3.33;3.03;;;13.80;99.90;;;;;;2070910;28;20113;-70
2022/11/16 03:30:39;;;;;;;3.38;2.80;;;13.80;99.90;;;;;;2070681;28;20100;-70
2022/11/16 03:31:48;;;;;;;2.55;2.35;;;13.80;99.90;;;;;;2070858;28;20028;-70
2022/11/16 03:32:54;;;;;;;2.85;2.65;;;13.80;99.90;;;;;;2069335;28;20045;-70
2022/11/16 03:33:59;;;;;;;2.88;2.47;;;13.80;99.90;;;;;;2070203;28;20905;-70
2022/11/16 03:35:06;;;;;;;3.40;3.10;;;13.80;99.90;;;;;;2069824;28;20057;-70
2022/11/16 03:36:16;;;;;;;2.67;2.47;;;13.80;99.90;;;;;;2069714;28;20196;-70
2022/11/16 03:37:18;;;;;;;3.45;2.53;;;13.80;99.90;;;;;;2070239;28;20065;-70
2022/11/16 03:38:22;;;;;;;3.17;2.88;;;13.80;99.90;;;;;;2069394;28;20561;-70
2022/11/16 03:39:30;;;;;;;3.78;2.55;;;13.80;99.90;;;;;;2070633;28;20052;-70
2022/11/16 03:40:33;;;;;;;3.17;2.85;;;13.80;99.90;;;;;;2069742;28;20026;-70
2022/11/16 03:41:36;;;;;;;2.83;2.45;;;13.80;99.90;;;;;;2071255;28;20064;-70
2022/11/16 03:42:38;;;;;;;2.65;2.45;;;13.80;99.90;;;;;;2069354;28;20032;-70
2022/11/16 03:43:41;;;;;;;2.92;2.72;;;13.80;99.90;;;;;;2071213;28;20022;-70
2022/11/16 03:44:43;;;;;;;2.92;2.70;;;13.80;99.90;;;;;;2070075;28;20040;-70
2022/11/16 03:45:45;;;;;;;3.15;2.95;;;13.80;99.90;;;;;;2069878;28;20026;-70
2022/11/16 03:46:47;;;;;;;3.00;2.80;;;13.80;99.90;;;;;;2070930;28;20026;-70
2022/11/16 03:47:47;;;;;;;2.83;2.58;;;13.80;99.90;;;;;;2070559;28;20030;-70
2022/11/16 03:48:54;;;;;;;3.13;2.70;;;13.70;99.90;;;;;;2070337;28;20026;-70
2022/11/16 03:49:54;;;;;;;3.70;2.70;;;13.80;99.90;;;;;;2069997;28;20054;-70
2022/11/16 03:50:55;;;;;;;3.08;2.78;;;13.80;99.90;;;;;;2070892;28;20099;-70
2022/11/16 03:51:56;;;;;;;2.83;2.63;;;13.70;99.90;;;;;;2071204;28;20030;-70
2022/11/16 03:52:57;;;;;;;2.67;2.47;;;13.70;99.90;;;;;;2069931;28;20022;-70
2022/11/16 03:53:58;;;;;;;2.50;2.30;;;13.70;99.90;;;;;;2070953;28;20045;-70
2022/11/16 03:54:58;;;;;;;3.90;2.30;;;13.80;99.90;;;;;;2069141;28;20113;-70
2022/11/16 03:55:58;;;;;;;3.25;2.63;;;13.80;99.90;;;;;;2070425;28;20045;-70
2022/11/16 03:56:59;;;;;;;3.15;2.50;;;13.80;99.90;;;;;;2070780;28;20034;-70
2022/11/16 03:57:59;;;;;;;2.53;2.33;;;13.70;99.90;;;;;;2069132;28;20486;-70
2022/11/16 03:59:00;;;;;;;2.60;2.40;;;13.80;99.90;;;;;;2072147;28;20386;-70
2022/11/16 04:00:01;;;;;;;2.42;2.22;;;13.80;99.90;;;;;;2070551;28;20446;-70
2022/11/16 04:01:02;;;;;;;2.58;2.38;;;13.80;99.90;;;;;;2071990;28;21287;-70
2022/11/16 04:02:02;;;;;;;3.38;2.40;;;13.80;99.90;;;;;;2071068;28;20022;-70
2022/11/16 04:03:03;;;;;;;2.67;2.47;;;13.80;99.90;;;;;;2069622;28;20018;-70
2022/11/16 04:04:04;;;;;;;2.70;2.45;;;13.80;99.90;;;;;;2070052;28;20470;-70
2022/11/16 04:25:12;;;;;;;2.03;1.73;;;13.70;99.90;;;;;;2069738;28;20030;-70
2022/11/16 04:26:13;;;;;;;1.60;1.50;;;13.70;99.90;;;;;;2070668;28;20022;-70
2022/11/16 04:28:34;;;;;;;;;;;13.70;99.90;;;;;;2071356;28;20026;-70
2022/11/16 04:29:35;;;;;;;1.85;1.50;;;13.70;99.90;;;;;;2070879;28;19914;-70
2022/11/16 04:38:33;;;;;;;2.83;1.60;;;13.70;99.90;;;;;;2067022;28;20061;-70
2022/11/16 04:39:34;;;;;;;1.85;1.30;;;13.70;99.90;;;;;;2069365;28;20034;-70
2022/11/16 04:40:34;;;;;;;2.08;1.52;;;13.70;99.90;;;;;;2069695;28;20101;-70
2022/11/16 04:43:00;;;;;;;2.42;1.10;;;13.70;99.90;;;;;;2069281;28;20470;-70
2022/11/16 04:44:00;;;;;;;2.63;1.33;;;13.80;99.90;;;;;;2069828;28;20033;-70
2022/11/16 04:47:39;;;;;;;1.00;1.00;;;13.80;99.90;;;;;;2070673;28;20034;-70
2022/11/16 04:48:40;;;;;;;1.95;1.20;;;13.80;99.90;;;;;;2069619;28;20021;-70
2022/11/16 04:49:40;;;;;;;1.15;1.05;;;13.80;99.90;;;;;;2070861;28;20072;-70
2022/11/16 04:50:41;;;;;;;1.42;1.20;;;13.80;99.90;;;;;;2070065;28;20022;-70
2022/11/16 04:51:41;;;;;;;1.38;1.27;;;13.80;99.90;;;;;;2069922;28;20105;-70
2022/11/16 04:52:42;;;;;;;2.20;1.30;;;13.80;99.90;;;;;;2070912;28;20030;-70
2022/11/16 04:53:42;;;;;;;5.38;1.50;;;13.80;99.90;;;;;;2068817;28;20022;-70
2022/11/16 04:54:43;;;;;;;1.35;1.02;;;13.80;99.90;;;;;;2070288;28;20064;-70
2022/11/16 04:55:43;;;;;;;1.20;1.10;;;13.70;99.90;;;;;;2068433;28;20029;-70
2022/11/16 04:56:44;;;;;;;2.67;1.52;;;13.70;99.90;;;;;;2069258;28;20117;-70
2022/11/16 04:57:45;;;;;;;1.20;1.10;;;13.80;99.90;;;;;;2069900;28;20512;-70
2022/11/16 04:58:45;;;;;;;2.35;1.30;;;13.80;99.90;;;;;;2069552;28;20590;-70
2022/11/16 04:59:46;;;;;;;1.65;1.25;;;13.80;99.90;;;;;;2068339;28;20037;-70
2022/11/16 05:00:46;;;;;;;1.10;1.00;;;13.80;99.90;;;;;;2071808;28;20018;-70
2022/11/16 05:03:06;;;;;;;1.33;1.23;;;13.80;99.90;;;;;;2068136;28;20030;-70
2022/11/16 05:04:06;;;;;;;1.33;1.13;;;13.80;99.90;;;;;;2069802;28;20022;-70
2022/11/16 05:05:07;;;;;;;1.90;1.35;;;13.80;99.90;;;;;;2069774;28;20475;-70
2022/11/16 05:06:08;;;;;;;1.27;1.17;;;13.80;99.90;;;;;;2070477;28;20026;-70
2022/11/16 05:07:11;;;;;;;1.23;1.13;;;13.80;99.90;;;;;;2070536;28;20026;-70
2022/11/16 05:08:12;;;;;;;1.70;1.30;;;13.80;99.90;;;;;;2070001;28;20014;-70
2022/11/16 05:09:13;;;;;;;1.17;1.10;;;13.80;99.90;;;;;;2070465;28;20057;-70
2022/11/16 05:10:14;;;;;;;1.30;1.20;;;13.80;99.90;;;;;;2069595;28;20030;-70
2022/11/16 05:11:14;;;;;;;1.10;1.00;;;13.80;99.90;;;;;;2070883;28;20109;-70
2022/11/16 05:12:21;;;;;;;1.40;1.30;;;13.80;99.90;;;;;;2069520;28;20030;-70
2022/11/16 05:13:21;;;;;;;3.20;1.27;;;13.80;99.90;;;;;;2069115;28;20026;-70
2022/11/16 05:14:22;;;;;;;3.08;1.63;;;13.80;99.90;;;;;;2068645;28;20033;-70
2022/11/16 05:15:22;;;;;;;2.15;1.20;;;13.80;99.90;;;;;;2070240;28;20033;-70
2022/11/16 05:16:23;;;;;;;2.08;1.30;;;13.80;99.90;;;;;;2069053;28;20065;-70
2022/11/16 05:17:25;;;;;;;2.97;1.30;;;13.80;99.90;;;;;;2069769;28;20632;-70
2022/11/16 05:18:25;;;;;;;3.50;1.48;;;13.80;99.90;;;;;;2069425;28;20026;-70
2022/11/16 05:21:00;;;;;;;1.42;1.20;;;13.80;99.90;;;;;;2069759;28;20033;-70
2022/11/16 05:22:00;;;;;;;4.93;1.42;;;13.70;99.90;;;;;;2070677;28;20076;-70
2022/11/16 05:23:01;;;;;;;1.60;1.50;;;13.70;99.90;;;;;;2070094;28;20022;-70
2022/11/16 05:25:22;;;;;;;1.48;1.38;;;13.70;99.90;;;;;;2069468;28;20113;-70
2022/11/16 05:26:22;;;;;;;2.13;1.77;;;13.70;99.90;;;;;;2069107;28;20026;-70
2022/11/16 05:27:24;;;;;;;2.33;1.40;;;13.70;99.90;;;;;;2070334;28;20534;-70
2022/11/16 05:28:25;;;;;;;2.40;1.50;;;13.70;99.90;;;;;;2069729;28;20037;-70
2022/11/16 05:29:25;;;;;;;1.50;1.40;;;13.60;99.90;;;;;;2069847;28;20034;-70
2022/11/16 05:30:28;;;;;;;2.28;1.67;;;13.70;99.90;;;;;;2068312;28;20064;-70
2022/11/16 05:31:28;;;;;;;5.82;1.58;;;13.70;99.90;;;;;;2069245;28;20120;-70
2022/11/16 05:32:29;;;;;;;1.60;1.40;;;13.60;99.90;;;;;;2068297;28;20112;-70
2022/11/16 05:33:30;;;;;;;2.70;1.60;;;13.60;99.90;;;;;;2068813;28;20037;-70
2022/11/16 05:34:30;;;;;;;1.40;1.30;;;13.60;99.90;;;;;;2070062;28;20490;-70
2022/11/16 05:35:31;;;;;;;1.40;1.30;;;13.60;99.90;;;;;;2068821;28;20113;-70
2022/11/16 05:36:31;;;;;;;2.13;1.50;;;13.60;99.90;;;;;;2070160;28;20026;-70
2022/11/16 05:37:32;;;;;;;1.33;1.20;;;13.60;99.90;;;;;;2067456;28;20026;-70
2022/11/16 05:38:32;;;;;;;1.75;1.30;;;13.60;99.90;;;;;;2069670;28;20113;-70
2022/11/16 05:39:33;;;;;;;2.72;1.50;;;13.60;99.90;;;;;;2070951;28;20064;-70
2022/11/16 05:40:33;;;;;;;1.35;1.20;;;13.60;99.90;;;;;;2069306;28;20394;-70
2022/11/16 05:41:34;;;;;;;2.50;1.30;;;13.60;99.90;;;;;;2070440;28;20038;-70
2022/11/16 05:42:34;;;;;;;1.98;1.70;;;13.60;99.90;;;;;;2070100;28;20116;-70
2022/11/16 05:43:35;;;;;;;1.98;1.40;;;13.60;99.90;;;;;;2068528;28;20068;-70
2022/11/16 05:44:35;;;;;;;1.58;1.30;;;13.60;99.90;;;;;;2070608;28;20037;-70
2022/11/16 05:45:36;;;;;;;1.50;1.40;;;13.60;99.90;;;;;;2068172;28;20026;-70
2022/11/16 05:46:37;;;;;;;2.67;1.50;;;13.60;99.90;;;;;;2070595;28;20026;-70
2022/11/16 05:47:37;;;;;;;2.90;1.45;;;13.60;99.90;;;;;;2069403;28;20022;-70
2022/11/16 05:48:38;;;;;;;2.13;1.35;;;13.60;99.90;;;;;;2070614;28;20022;-70
2022/11/16 05:49:38;;;;;;;1.92;1.38;;;13.50;99.90;;;;;;2070218;28;20029;-70
2022/11/16 05:50:39;;;;;;;1.60;1.50;;;13.50;99.90;;;;;;2069904;28;20029;-70
2022/11/16 05:51:41;;;;;;;1.45;1.30;;;13.50;99.90;;;;;;2069671;28;20069;-70
2022/11/16 05:52:42;;;;;;;2.67;1.20;;;13.50;99.90;;;;;;2070713;28;20043;-70
2022/11/16 05:53:43;;;;;;;1.70;1.27;;;13.50;99.90;;;;;;2069148;28;20125;-70
2022/11/16 05:54:43;;;;;;;1.50;1.20;;;13.50;99.90;;;;;;2070228;28;20026;-70
2022/11/16 05:55:44;;;;;;;1.40;1.30;;;13.50;99.90;;;;;;2070060;28;20117;-70
2022/11/16 05:56:45;;;;;;;1.92;1.40;;;13.50;99.90;;;;;;2070182;28;20042;-70
2022/11/16 05:57:46;;;;;;;2.15;1.60;;;13.50;99.90;;;;;;2070820;28;20033;-70
2022/11/16 05:58:47;;;;;;;1.48;1.38;;;13.50;99.90;;;;;;2069983;28;20026;-70
2022/11/16 05:59:47;;;;;;;3.40;1.48;;;13.50;99.90;;;;;;2070408;28;20116;-70
2022/11/16 06:00:48;;;;;;;2.47;1.73;;;13.50;99.90;;;;;;2069012;28;20374;-70
2022/11/16 06:01:49;;;;;;;2.50;2.30;;;13.50;99.90;;;;;;2069586;28;20062;-70
2022/11/16 06:02:50;;;;;;;1.52;1.42;;;13.50;99.90;;;;;;2068636;28;20026;-70
2022/11/16 06:03:51;;;;;;;4.22;1.63;;;13.50;99.90;;;;;;2069742;28;20088;-70
2022/11/16 06:04:51;;;;;;;1.98;1.38;;;13.50;99.90;;;;;;2069698;28;20034;-70
2022/11/16 06:05:54;;;;;;;4.72;2.15;;;13.50;99.90;;;;;;2071265;28;20029;-70
2022/11/16 06:06:55;;;;;;;3.58;1.77;;;13.50;99.90;;;;;;2070457;28;20022;-70
2022/11/16 06:07:55;;;;;;;2.55;1.75;;;13.50;99.90;;;;;;2070775;28;20014;-70
2022/11/16 06:08:56;;;;;;;2.47;1.35;;;13.50;99.90;;;;;;2069662;28;20068;-70
2022/11/16 06:09:56;;;;;;;1.60;1.50;;;13.50;99.90;;;;;;2069706;28;20014;-70
2022/11/16 06:11:04;;;;;;;1.85;1.35;;;13.50;99.90;;;;;;2070459;28;20036;-70
2022/11/16 06:12:05;;;;;;;2.45;1.60;;;13.50;99.90;;;;;;2070304;28;20504;-70
2022/11/16 06:13:05;;;;;;;1.98;1.48;;;13.50;99.90;;;;;;2067465;28;20411;-70
2022/11/16 06:14:06;;;;;;;2.90;1.60;;;13.50;99.90;;;;;;2070327;28;20018;-70